Time;durP1;ratioP1;P1;durP2;ratioP2;P2;SDS_P1;SDS_P2;PMS_P1;PMS_P2;Temp;Humidity;BMP_temperature;BMP_pressure;BME280_temperature;BME280_humidity;BME280_pressure;Samples;Min_cycle;Max_cycle;Signal;HPM_P1;HPM_P2
2023/05/31 00:01:01;;;;;;;3.78;1.00;;;;;;;15.91;54.37;99086.53;5048084;28;20028;-70
2023/05/31 00:03:26;;;;;;;2.88;1.20;;;;;;;15.74;54.34;99076.25;5050863;28;20063;-70
2023/05/31 00:05:51;;;;;;;3.38;1.33;;;;;;;15.87;53.98;99086.16;5053014;28;20033;-68
2023/05/31 00:08:17;;;;;;;4.53;1.50;;;;;;;15.90;53.49;99077.53;5037411;28;20417;-70
2023/05/31 00:10:42;;;;;;;2.35;1.40;;;;;;;15.89;53.80;99077.75;5050102;28;20023;-69
2023/05/31 00:13:07;;;;;;;3.92;1.27;;;;;;;15.80;53.59;99071.78;5053749;28;20033;-69
2023/05/31 00:15:32;;;;;;;5.22;1.48;;;;;;;15.69;53.68;99058.91;5054751;28;20029;-70
2023/05/31 00:17:58;;;;;;;3.53;1.13;;;;;;;15.81;53.87;99089.81;5052380;28;20045;-70
2023/05/31 00:20:23;;;;;;;2.42;1.10;;;;;;;15.83;53.71;99070.50;5052779;28;20055;-68
2023/05/31 00:22:48;;;;;;;4.90;1.40;;;;;;;15.82;53.90;99075.09;5054407;28;20100;-70
2023/05/31 00:25:14;;;;;;;6.97;1.23;;;;;;;15.86;54.19;99070.84;5044957;28;20025;-71
2023/05/31 00:27:39;;;;;;;2.40;0.95;;;;;;;15.77;54.11;99075.81;5052240;28;20371;-70
2023/05/31 00:30:05;;;;;;;6.07;1.23;;;;;;;15.82;54.47;99088.72;5052709;28;20032;-70
2023/05/31 00:32:30;;;;;;;4.00;1.40;;;;;;;15.82;54.32;99080.53;5057296;28;20370;-68
2023/05/31 00:34:55;;;;;;;4.93;1.20;;;;;;;15.91;53.70;99071.00;5054394;28;20024;-67
2023/05/31 00:37:21;;;;;;;3.03;1.20;;;;;;;15.96;54.04;99065.66;5048955;28;20486;-67
2023/05/31 00:39:46;;;;;;;4.47;1.25;;;;;;;15.95;54.07;99064.00;5051261;28;20071;-70
2023/05/31 00:42:12;;;;;;;8.52;1.35;;;;;;;15.90;54.08;99061.16;5054159;28;20033;-68
2023/05/31 00:44:37;;;;;;;6.22;1.35;;;;;;;15.92;54.47;99064.47;5035990;28;20029;-67
2023/05/31 00:47:02;;;;;;;4.32;1.35;;;;;;;16.06;54.39;99064.25;5053137;28;20031;-68
2023/05/31 00:49:28;;;;;;;5.13;1.50;;;;;;;15.99;54.41;99059.75;5051680;28;20029;-68
2023/05/31 00:51:54;;;;;;;5.47;1.55;;;;;;;15.96;54.83;99062.94;5047094;28;20043;-68
2023/05/31 00:54:20;;;;;;;2.75;1.30;;;;;;;15.83;55.07;99035.03;5050144;28;20025;-68
2023/05/31 00:56:45;;;;;;;5.35;1.20;;;;;;;16.03;54.72;99059.28;5046351;28;20120;-68
2023/05/31 00:59:11;;;;;;;4.05;1.10;;;;;;;16.00;54.44;99034.09;5037064;28;20124;-68
2023/05/31 01:01:37;;;;;;;4.18;1.38;;;;;;;16.05;54.53;99040.78;5050527;28;20025;-68
2023/05/31 01:04:02;;;;;;;5.07;1.20;;;;;;;16.14;54.57;99055.78;5065913;28;20057;-68
2023/05/31 01:06:32;;;;;;;3.03;1.20;;;;;;;16.12;54.30;99045.06;5051998;28;20049;-68
2023/05/31 01:08:57;;;;;;;;;;;;;;;16.09;54.79;99058.38;5051886;28;20104;-68
2023/05/31 01:11:28;;;;;;;5.20;1.23;;;;;;;15.94;54.84;99040.50;5042785;28;19999;-68
2023/05/31 01:13:57;;;;;;;3.75;1.10;;;;;;;16.00;54.83;99055.94;5053444;28;20025;-68
2023/05/31 01:16:26;;;;;;;;;;;;;;;15.94;54.99;99040.50;5050255;28;20025;-68
2023/05/31 01:19:02;;;;;;;2.78;1.10;;;;;;;15.95;55.21;99031.25;5048970;28;19931;-69
2023/05/31 01:21:57;;;;;;;3.50;1.77;;;;;;;15.95;55.07;99050.34;5053382;28;20035;-69
2023/05/31 01:24:32;;;;;;;2.53;1.10;;;;;;;15.98;54.71;99051.78;5041158;28;20045;-69
2023/05/31 01:27:00;;;;;;;4.53;1.73;;;;;;;15.99;55.01;99048.00;5051715;28;20021;-70
2023/05/31 01:29:27;;;;;;;7.05;1.48;;;;;;;15.99;55.08;99048.00;5034396;28;20035;-69
2023/05/31 01:31:54;;;;;;;1.58;1.00;;;;;;;15.86;55.03;99035.38;5053578;28;20028;-68
2023/05/31 01:34:20;;;;;;;3.58;1.58;;;;;;;15.89;55.30;99056.75;5052151;28;20099;-69
2023/05/31 01:36:45;;;;;;;4.57;1.17;;;;;;;15.80;55.09;99039.03;5050319;28;20538;-68
2023/05/31 01:39:11;;;;;;;3.40;1.10;;;;;;;15.70;55.60;99038.75;5045833;28;20032;-68
2023/05/31 01:41:40;;;;;;;3.00;1.30;;;;;;;15.60;55.70;99033.00;5052432;28;20025;-68
2023/05/31 01:47:28;;;;;;;3.72;1.30;;;;;;;15.69;55.84;99058.91;5048631;28;20577;-68
2023/05/31 01:49:53;;;;;;;1.80;1.20;;;;;;;15.75;55.57;99071.63;5038679;28;20024;-68
2023/05/31 01:52:20;;;;;;;2.92;1.38;;;;;;;15.57;56.00;99051.47;5050927;28;20078;-68
2023/05/31 01:54:46;;;;;;;3.47;1.15;;;;;;;15.52;55.95;99066.88;5046435;28;20028;-68
2023/05/31 01:57:13;;;;;;;5.28;1.35;;;;;;;15.52;56.15;99075.88;5049492;28;20040;-68
2023/05/31 01:59:40;;;;;;;3.55;1.33;;;;;;;15.54;56.21;99078.38;5050618;28;20032;-68
2023/05/31 02:02:05;;;;;;;3.58;1.30;;;;;;;15.51;56.37;99082.41;5051934;28;20433;-69
2023/05/31 02:04:31;;;;;;;4.28;1.38;;;;;;;15.46;56.35;99079.53;5052077;28;20021;-69
2023/05/31 02:06:57;;;;;;;3.67;1.33;;;;;;;15.30;56.92;99074.66;5035866;28;20596;-69
2023/05/31 02:09:23;;;;;;;4.35;1.20;;;;;;;15.24;56.64;99072.84;5051638;28;20136;-69
2023/05/31 02:11:49;;;;;;;3.28;1.20;;;;;;;15.19;57.23;99061.78;5049506;28;20538;-69
2023/05/31 02:14:14;;;;;;;3.00;1.10;;;;;;;15.09;57.29;99068.63;5051902;28;20033;-69
2023/05/31 02:16:39;;;;;;;3.53;1.40;;;;;;;15.29;57.10;99081.19;5050578;28;20025;-68
2023/05/31 02:19:05;;;;;;;4.13;1.00;;;;;;;15.34;57.46;99092.25;5045682;28;20048;-69
2023/05/31 02:21:35;;;;;;;3.42;1.15;;;;;;;15.15;57.55;99075.06;5052265;28;20036;-69
2023/05/31 02:24:00;;;;;;;2.28;1.00;;;;;;;15.16;58.11;99084.06;5050995;28;20366;-70
2023/05/31 02:26:26;;;;;;;5.25;1.95;;;;;;;15.15;58.25;99071.50;5047305;28;20024;-70
2023/05/31 02:28:51;;;;;;;3.33;1.00;;;;;;;14.85;58.55;99047.69;5051838;28;20636;-70
2023/05/31 02:31:17;;;;;;;2.78;1.27;;;;;;;15.01;58.96;99085.28;5049148;28;20103;-70
2023/05/31 02:33:42;;;;;;;2.28;1.15;;;;;;;14.95;59.26;99080.69;5053780;28;20032;-70
2023/05/31 02:36:09;;;;;;;6.45;1.58;;;;;;;14.97;58.74;99075.03;5049218;28;20131;-70
2023/05/31 02:38:34;;;;;;;3.70;1.60;;;;;;;14.93;58.45;99069.19;5051920;28;20032;-70
2023/05/31 02:40:59;;;;;;;2.75;0.95;;;;;;;15.03;58.78;99082.31;5050106;28;20025;-70
2023/05/31 02:43:24;;;;;;;7.18;1.30;;;;;;;15.04;59.12;99084.00;5051415;28;20467;-69
2023/05/31 02:45:50;;;;;;;4.65;1.45;;;;;;;14.87;58.59;99068.19;5052237;28;20549;-69
2023/05/31 02:48:15;;;;;;;2.72;1.13;;;;;;;14.96;58.16;99068.78;5049962;28;20035;-70
2023/05/31 02:50:41;;;;;;;9.98;1.50;;;;;;;14.83;58.43;99064.28;5050470;28;20073;-70
2023/05/31 02:53:06;;;;;;;4.45;1.35;;;;;;;14.92;58.81;99085.78;5051972;28;20032;-70
2023/05/31 02:55:32;;;;;;;5.25;1.25;;;;;;;14.85;58.96;99078.47;5044053;28;20031;-69
2023/05/31 02:57:58;;;;;;;4.75;1.38;;;;;;;14.82;59.07;99065.31;5045909;28;20025;-70
2023/05/31 03:00:23;;;;;;;2.65;0.95;;;;;;;14.74;59.12;99062.06;5049809;28;20033;-70
2023/05/31 03:02:49;;;;;;;3.38;1.25;;;;;;;14.81;59.30;99081.91;5042514;28;20029;-69
2023/05/31 03:05:15;;;;;;;3.58;1.05;;;;;;;14.62;60.44;99073.69;5052346;28;20021;-69
2023/05/31 03:07:40;;;;;;;3.30;1.30;;;;;;;14.52;60.37;99067.88;5045417;28;20139;-73
2023/05/31 03:10:07;;;;;;;1.65;0.90;;;;;;;14.48;60.55;99061.19;5042520;28;20025;-73
2023/05/31 03:12:33;;;;;;;2.92;1.25;;;;;;;14.74;59.37;99086.56;5052853;28;20029;-73
2023/05/31 03:14:59;;;;;;;8.95;1.65;;;;;;;14.61;59.55;99074.72;5032930;28;20031;-73
2023/05/31 03:17:24;;;;;;;3.97;1.10;;;;;;;14.62;59.58;99070.97;5050154;28;20033;-72
2023/05/31 03:19:50;;;;;;;3.05;1.08;;;;;;;14.69;59.02;99066.28;5044437;28;20078;-72
2023/05/31 03:22:15;;;;;;;5.68;1.35;;;;;;;14.74;58.80;99073.78;5048884;28;20021;-70
2023/05/31 03:24:41;;;;;;;3.70;1.20;;;;;;;14.80;59.35;99080.22;5050625;28;20031;-70
2023/05/31 03:27:06;;;;;;;2.72;1.17;;;;;;;14.66;59.59;99076.78;5032341;28;20037;-70
2023/05/31 03:29:33;;;;;;;2.50;1.30;;;;;;;14.73;60.27;99093.09;5039177;28;20029;-69
2023/05/31 03:31:59;;;;;;;6.50;1.30;;;;;;;14.70;59.77;99088.91;5033193;28;20047;-70
2023/05/31 03:34:24;;;;;;;2.22;1.10;;;;;;;14.44;63.48;99089.94;5049689;28;20032;-71
2023/05/31 03:36:50;;;;;;;3.20;1.10;;;;;;;14.14;67.81;99087.81;5046285;28;20025;-72
2023/05/31 03:39:16;;;;;;;2.90;1.10;;;;;;;14.00;74.26;99094.41;5033071;28;20467;-71
2023/05/31 03:41:41;;;;;;;3.63;1.10;;;;;;;13.75;77.92;99097.91;5038056;28;20032;-71
2023/05/31 03:44:06;;;;;;;7.72;1.48;;;;;;;13.53;78.68;99091.94;5056887;28;20017;-71
2023/05/31 03:46:32;;;;;;;4.30;1.38;;;;;;;13.56;78.60;99087.94;5050758;28;20029;-73
2023/05/31 03:48:57;;;;;;;3.22;1.40;;;;;;;13.55;79.34;99092.56;5048688;28;20063;-71
2023/05/31 03:51:22;;;;;;;2.35;1.10;;;;;;;13.57;79.85;99086.88;5042897;28;20059;-75
2023/05/31 03:53:47;;;;;;;6.53;1.30;;;;;;;13.54;80.94;99090.03;5046941;28;20025;-73
2023/05/31 03:56:13;;;;;;;4.97;1.30;;;;;;;13.53;84.64;99089.22;5038127;28;20033;-71
2023/05/31 03:58:39;;;;;;;6.75;1.05;;;;;;;13.51;89.36;99093.19;5032196;28;20363;-76
2023/05/31 04:01:06;;;;;;;3.53;1.27;;;;;;;13.40;94.29;99083.81;5034644;28;20032;-70
2023/05/31 04:03:31;;;;;;;2.78;1.10;;;;;;;13.43;95.44;99096.16;5045152;28;20035;-75
2023/05/31 04:05:57;;;;;;;4.80;1.10;;;;;;;13.38;96.81;99096.78;5037285;28;20029;-75
2023/05/31 04:08:22;;;;;;;3.20;1.42;;;;;;;13.45;94.32;99105.75;5048932;28;20035;-76
2023/05/31 04:10:48;;;;;;;4.15;1.30;;;;;;;13.62;92.31;99108.00;5030002;28;20102;-74
2023/05/31 04:13:14;;;;;;;2.97;1.20;;;;;;;13.66;92.50;99120.94;5036461;28;20036;-76
2023/05/31 04:15:39;;;;;;;10.77;1.40;;;;;;;13.70;92.70;99114.03;5028161;28;20054;-71
2023/05/31 04:18:05;;;;;;;3.83;1.27;;;;;;;13.64;93.80;99093.13;5036688;28;20025;-70
2023/05/31 04:20:30;;;;;;;9.45;1.67;;;;;;;13.74;92.97;99095.41;5043166;28;20021;-74
2023/05/31 04:22:55;;;;;;;9.70;1.70;;;;;;;13.88;90.07;99105.16;5050980;28;20431;-75
2023/05/31 04:25:20;;;;;;;2.40;1.40;;;;;;;14.07;86.48;99097.94;5050885;28;20016;-75
2023/05/31 04:27:47;;;;;;;3.50;0.95;;;;;;;14.25;84.14;99116.22;5031670;28;20028;-74
2023/05/31 04:30:12;;;;;;;3.50;1.25;;;;;;;14.24;87.00;99112.69;5030434;28;20063;-76
2023/05/31 04:32:39;;;;;;;7.90;1.48;;;;;;;14.36;84.56;99120.16;5033051;28;20049;-78
2023/05/31 04:35:05;;;;;;;3.55;1.30;;;;;;;14.38;84.70;99107.13;5026492;28;20028;-76
2023/05/31 04:37:32;;;;;;;3.22;1.13;;;;;;;14.44;83.20;99109.00;5029565;28;20052;-76
2023/05/31 04:39:59;;;;;;;2.70;1.20;;;;;;;14.51;84.21;99112.47;5044246;28;20059;-74
2023/05/31 04:42:24;;;;;;;5.50;1.50;;;;;;;14.50;83.38;99108.09;5039319;28;20043;-74
2023/05/31 04:44:57;;;;;;;3.75;1.40;;;;;;;14.67;81.35;99124.75;5039005;28;20025;-75
2023/05/31 04:47:24;;;;;;;3.88;1.52;;;;;;;14.76;80.50;99126.16;5029542;28;20037;-74
2023/05/31 04:49:50;;;;;;;2.50;1.20;;;;;;;14.83;81.23;99123.38;5025750;28;20520;-74
2023/05/31 04:52:15;;;;;;;2.30;1.20;;;;;;;14.81;82.50;99122.75;5034678;28;20036;-77
2023/05/31 04:54:41;;;;;;;6.07;1.60;;;;;;;14.73;80.27;99088.47;5038370;28;20028;-79
2023/05/31 04:57:22;;;;;;;2.03;1.17;;;;;;;15.00;81.21;99127.19;5049892;28;20021;-74
2023/05/31 04:59:48;;;;;;;6.15;1.20;;;;;;;15.01;80.42;99112.53;5035810;28;20044;-75
2023/05/31 05:02:13;;;;;;;2.92;1.10;;;;;;;15.11;81.08;99120.16;5034841;28;20541;-79
2023/05/31 05:04:39;;;;;;;5.68;1.42;;;;;;;15.18;79.61;99123.66;5031429;28;20505;-72
2023/05/31 05:07:05;;;;;;;3.05;1.20;;;;;;;15.23;79.33;99115.63;5034440;28;20151;-74
2023/05/31 05:09:30;;;;;;;3.83;1.10;;;;;;;15.49;77.15;99136.31;5043543;28;20025;-71
2023/05/31 05:11:56;;;;;;;3.88;1.23;;;;;;;15.50;79.31;99121.63;5044317;28;20056;-73
2023/05/31 05:14:21;;;;;;;5.80;1.42;;;;;;;15.56;78.29;99137.09;5038396;28;20087;-72
2023/05/31 05:16:47;;;;;;;3.58;1.10;;;;;;;15.62;76.86;99129.88;5043303;28;20093;-73
2023/05/31 05:19:12;;;;;;;3.08;1.15;;;;;;;15.75;77.93;99128.94;5051752;28;20025;-76
2023/05/31 05:21:37;;;;;;;4.15;1.25;;;;;;;15.78;78.12;99114.81;5027323;28;20402;-70
2023/05/31 05:24:03;;;;;;;4.13;1.58;;;;;;;15.97;77.70;99123.81;5032580;28;20473;-77
2023/05/31 05:26:28;;;;;;;5.20;1.38;;;;;;;16.13;77.27;99135.97;5038314;28;20047;-73
2023/05/31 05:28:53;;;;;;;8.20;1.80;;;;;;;16.27;74.23;99137.47;5035014;28;20029;-73
2023/05/31 05:31:19;;;;;;;2.65;1.15;;;;;;;16.39;75.41;99141.03;5034306;28;20535;-73
2023/05/31 05:33:45;;;;;;;5.78;1.30;;;;;;;16.54;73.27;99137.88;5029582;28;20536;-74
2023/05/31 05:36:10;;;;;;;4.05;1.25;;;;;;;16.65;71.85;99144.44;5033935;28;20039;-72
2023/05/31 05:38:35;;;;;;;7.97;1.95;;;;;;;16.92;72.85;99149.50;5049994;28;20021;-71
2023/05/31 05:41:00;;;;;;;4.53;1.42;;;;;;;17.02;70.95;99144.28;5052514;28;20025;-70
2023/05/31 05:43:28;;;;;;;4.50;1.40;;;;;;;17.24;72.41;99145.38;5051554;28;20386;-72
2023/05/31 05:45:54;;;;;;;1.90;1.00;;;;;;;17.19;68.72;99134.31;5049701;28;20123;-75
2023/05/31 05:48:19;;;;;;;6.65;1.45;;;;;;;17.34;70.04;99132.97;5034271;28;20490;-74
2023/05/31 05:50:45;;;;;;;2.92;1.30;;;;;;;17.72;69.06;99144.22;5050346;28;20100;-79
2023/05/31 05:53:10;;;;;;;3.75;1.30;;;;;;;17.77;68.84;99145.41;5032402;28;20075;-80
2023/05/31 05:55:36;;;;;;;4.18;1.40;;;;;;;17.90;65.36;99150.63;5053066;28;20053;-74
2023/05/31 05:58:02;;;;;;;4.13;1.20;;;;;;;17.91;65.12;99142.16;5048187;28;20064;-70
2023/05/31 06:00:28;;;;;;;2.67;1.40;;;;;;;18.02;64.13;99139.63;5031488;28;20025;-67
2023/05/31 06:02:53;;;;;;;2.70;1.20;;;;;;;18.26;64.09;99143.09;5047357;28;20027;-67
2023/05/31 06:05:25;;;;;;;8.93;1.60;;;;;;;18.28;64.49;99138.22;5057101;28;20032;-70
2023/05/31 06:07:51;;;;;;;8.30;1.55;;;;;;;18.30;63.45;99149.78;5049793;28;20029;-72
2023/05/31 06:10:16;;;;;;;4.88;1.40;;;;;;;18.32;61.55;99142.16;5051545;28;20027;-69
2023/05/31 06:12:41;;;;;;;4.95;1.27;;;;;;;18.36;61.63;99143.28;5030081;28;20028;-66
2023/05/31 06:15:07;;;;;;;6.13;1.52;;;;;;;18.62;62.45;99137.19;5048048;28;20490;-67
2023/05/31 06:17:32;;;;;;;6.82;1.45;;;;;;;18.76;60.82;99140.50;5050376;28;20021;-76
2023/05/31 06:19:58;;;;;;;4.78;1.50;;;;;;;18.91;59.45;99148.13;5034063;28;20445;-72
2023/05/31 06:22:23;;;;;;;3.30;1.52;;;;;;;18.91;59.19;99131.66;5035961;28;20044;-73
2023/05/31 06:24:48;;;;;;;5.18;1.83;;;;;;;19.11;59.36;99138.56;5051865;28;20025;-71
2023/05/31 06:27:14;;;;;;;4.88;1.42;;;;;;;19.07;58.59;99131.91;5050932;28;20023;-78
2023/05/31 06:29:39;;;;;;;3.80;1.20;;;;;;;19.39;58.44;99121.16;5054994;28;20025;-77
2023/05/31 06:32:05;;;;;;;3.10;1.35;;;;;;;19.64;57.72;99123.41;5029820;28;20105;-74
2023/05/31 06:34:30;;;;;;;5.47;1.45;;;;;;;19.62;57.07;99111.84;5051240;28;20162;-76
2023/05/31 06:36:56;;;;;;;4.85;1.60;;;;;;;19.74;56.38;99120.81;5047174;28;20029;-75
2023/05/31 06:39:21;;;;;;;5.03;1.33;;;;;;;19.79;56.01;99114.56;5034002;28;20032;-73
2023/05/31 06:41:46;;;;;;;3.92;1.38;;;;;;;20.46;53.46;99124.34;5054055;28;20031;-73
2023/05/31 06:44:11;;;;;;;3.90;1.30;;;;;;;22.30;50.88;99120.00;5053310;28;20028;-75
2023/05/31 06:46:37;;;;;;;5.03;1.30;;;;;;;24.63;46.64;99129.16;5038142;28;20570;-75
2023/05/31 06:49:05;;;;;;;4.35;1.98;;;;;;;25.80;43.78;99132.75;5047143;28;20040;-75
2023/05/31 06:51:30;;;;;;;4.38;1.27;;;;;;;25.79;42.41;99128.34;5033486;28;20024;-75
2023/05/31 06:53:56;;;;;;;9.65;1.50;;;;;;;25.95;42.62;99120.69;5034706;28;20635;-75
2023/05/31 06:56:21;;;;;;;7.10;1.88;;;;;;;27.60;40.34;99117.75;5051126;28;20116;-71
2023/05/31 06:58:48;;;;;;;3.05;1.40;;;;;;;28.34;38.73;99108.44;5047848;28;20137;-71
2023/05/31 07:01:13;;;;;;;3.42;1.25;;;;;;;28.44;38.57;99119.34;5051375;28;20111;-71
2023/05/31 07:03:38;;;;;;;7.25;1.42;;;;;;;28.08;38.49;99128.47;5046874;28;20470;-73
2023/05/31 07:06:04;;;;;;;7.68;1.42;;;;;;;27.56;38.50;99113.94;5050133;28;20036;-70
2023/05/31 07:08:29;;;;;;;3.10;1.30;;;;;;;27.63;38.51;99117.13;5056234;28;20466;-70
2023/05/31 07:10:54;;;;;;;5.35;1.50;;;;;;;28.21;36.91;99109.28;5043011;28;20094;-70
2023/05/31 07:13:20;;;;;;;4.22;1.45;;;;;;;29.24;36.46;99111.28;5050693;28;20047;-70
2023/05/31 07:15:45;;;;;;;5.82;1.80;;;;;;;30.06;35.63;99122.94;5052996;28;20031;-71
2023/05/31 07:18:10;;;;;;;4.05;1.58;;;;;;;30.57;35.04;99107.41;5051631;28;20028;-74
2023/05/31 07:20:35;;;;;;;5.28;1.40;;;;;;;31.81;33.84;99102.03;5033070;28;20025;-71
2023/05/31 07:23:01;;;;;;;3.58;1.48;;;;;;;33.27;31.92;99114.41;5047831;28;20432;-74
2023/05/31 07:25:26;;;;;;;5.00;1.48;;;;;;;32.19;32.58;99103.97;5032578;28;20040;-74
2023/05/31 07:27:52;;;;;;;2.30;1.25;;;;;;;32.85;31.78;99078.88;5050193;28;20029;-73
2023/05/31 07:30:17;;;;;;;4.85;1.27;;;;;;;30.75;32.27;99111.81;5022545;28;20553;-74
2023/05/31 07:32:42;;;;;;;7.20;1.60;;;;;;;29.40;34.96;99104.16;5027853;28;20030;-76
2023/05/31 07:35:08;;;;;;;4.03;1.55;;;;;;;28.71;34.84;99103.69;5034319;28;20029;-75
2023/05/31 07:37:34;;;;;;;2.85;1.33;;;;;;;30.30;33.54;99097.38;5041647;28;20029;-77
2023/05/31 07:39:59;;;;;;;5.65;1.40;;;;;;;31.57;32.97;99111.03;5050819;28;20033;-80
2023/05/31 07:42:25;;;;;;;3.10;1.40;;;;;;;30.86;33.52;99101.16;5026908;28;20163;-81
2023/05/31 07:44:50;;;;;;;9.35;1.55;;;;;;;31.67;33.33;99085.47;5047192;28;20036;-76
2023/05/31 07:47:16;;;;;;;7.95;1.35;;;;;;;33.10;31.52;99107.84;5024288;28;20024;-66
2023/05/31 07:49:42;;;;;;;4.40;1.52;;;;;;;33.94;31.09;99096.25;5046449;28;20530;-74
2023/05/31 07:52:08;;;;;;;4.00;1.40;;;;;;;34.43;30.09;99104.63;5051918;28;20215;-82
2023/05/31 07:54:33;;;;;;;4.82;1.83;;;;;;;34.56;29.72;99090.53;5055935;28;20025;-77
2023/05/31 07:56:58;;;;;;;5.03;1.52;;;;;;;34.91;29.63;99085.16;5030435;28;20056;-67
2023/05/31 07:59:24;;;;;;;4.15;1.38;;;;;;;33.79;29.56;99092.16;5046523;28;20482;-81
2023/05/31 08:01:50;;;;;;;7.80;1.60;;;;;;;33.95;29.35;99054.97;5036074;28;20056;-81
2023/05/31 08:04:15;;;;;;;5.60;1.40;;;;;;;34.66;29.37;99085.28;5036162;28;20020;-76
2023/05/31 08:06:42;;;;;;;7.15;1.73;;;;;;;35.11;29.39;99088.94;5041750;28;20078;-73
2023/05/31 08:09:07;;;;;;;4.75;1.60;;;;;;;35.87;28.52;99083.22;5053046;28;20016;-78
2023/05/31 08:11:35;;;;;;;5.85;1.60;;;;;;;36.46;28.29;99085.00;5052332;28;20091;-77
2023/05/31 08:14:01;;;;;;;6.30;1.40;;;;;;;36.06;27.26;99086.09;5051588;28;20030;-77
2023/05/31 08:16:26;;;;;;;3.35;1.40;;;;;;;34.45;29.36;99085.44;5036143;28;20475;-77
2023/05/31 08:18:51;;;;;;;3.53;1.58;;;;;;;34.65;28.49;99077.19;5054850;28;20130;-75
2023/05/31 08:21:17;;;;;;;4.20;1.63;;;;;;;35.97;28.49;99085.47;5049556;28;20029;-75
2023/05/31 08:23:43;;;;;;;6.45;1.58;;;;;;;34.33;29.00;99084.66;5050655;28;20083;-75
2023/05/31 08:26:08;;;;;;;6.00;1.45;;;;;;;34.62;29.11;99061.84;5052468;28;20074;-77
2023/05/31 08:28:34;;;;;;;3.30;1.40;;;;;;;36.30;27.92;99065.34;5054209;28;20103;-78
2023/05/31 08:30:59;;;;;;;5.18;1.75;;;;;;;36.05;27.45;99070.38;5045395;28;20032;-77
2023/05/31 08:33:29;;;;;;;5.68;1.58;;;;;;;35.74;28.44;99049.56;5043414;28;20956;-78
2023/05/31 08:35:59;;;;;;;2.97;1.55;;;;;;;36.26;28.46;99078.53;5036874;28;20071;-77
2023/05/31 08:38:28;;;;;;;4.10;1.48;;;;;;;36.74;26.88;99050.16;5036626;28;20029;-74
2023/05/31 08:41:01;;;;;;;3.17;1.48;;;;;;;36.10;27.62;99083.41;5035011;28;20028;-75
2023/05/31 08:43:28;;;;;;;2.58;1.10;;;;;;;36.43;27.89;99071.66;5054574;28;20029;-74
2023/05/31 08:45:54;;;;;;;4.80;1.70;;;;;;;37.17;26.70;99062.28;5052955;28;20103;-76
2023/05/31 08:48:29;;;;;;;6.60;1.52;;;;;;;37.52;26.71;99059.31;5035720;28;20029;-79
2023/05/31 08:50:56;;;;;;;3.85;1.60;;;;;;;37.92;27.68;99060.72;5048148;28;20056;-76
2023/05/31 08:53:25;;;;;;;5.95;1.50;;;;;;;39.22;25.92;99050.69;5054148;28;20029;-75
2023/05/31 08:55:52;;;;;;;5.05;1.27;;;;;;;36.51;26.43;99064.16;5054524;28;20606;-75
2023/05/31 08:58:18;;;;;;;5.00;1.88;;;;;;;36.26;27.45;99060.81;5052507;28;20044;-77
2023/05/31 09:00:45;;;;;;;4.72;1.65;;;;;;;37.47;27.06;99070.88;5047551;28;20028;-78
2023/05/31 09:03:10;;;;;;;2.55;1.25;;;;;;;38.16;26.05;99042.53;5056897;28;20075;-77
2023/05/31 09:05:36;;;;;;;3.05;1.30;;;;;;;39.15;25.01;99055.47;5054458;28;20963;-76
2023/05/31 09:08:02;;;;;;;3.60;1.77;;;;;;;38.69;25.81;99044.41;5045674;28;20079;-75
2023/05/31 09:10:28;;;;;;;2.70;1.42;;;;;;;39.78;23.81;99045.91;5050828;28;20021;-71
2023/05/31 09:12:54;;;;;;;10.30;1.83;;;;;;;38.01;24.91;99058.44;5052248;28;20432;-69
2023/05/31 09:15:22;;;;;;;9.15;1.88;;;;;;;37.55;25.57;99066.19;5052893;28;20074;-69
2023/05/31 09:17:48;;;;;;;3.25;1.70;;;;;;;36.84;26.73;99050.38;5049464;28;20029;-68
2023/05/31 09:20:14;;;;;;;4.90;1.52;;;;;;;36.63;26.12;99055.59;5036315;28;20024;-68
2023/05/31 09:22:39;;;;;;;8.98;1.63;;;;;;;36.43;26.75;99057.56;5042653;28;20031;-74
2023/05/31 09:25:05;;;;;;;6.00;1.83;;;;;;;36.29;26.68;99048.78;5035773;28;20021;-70
2023/05/31 09:27:38;;;;;;;4.30;1.58;;;;;;;36.51;26.42;99052.91;5048974;28;20024;-69
2023/05/31 09:30:08;;;;;;;5.53;1.13;;;;;;;36.44;25.78;99047.91;5050810;28;20506;-69
2023/05/31 09:32:35;;;;;;;4.95;1.95;;;;;;;35.74;26.85;99040.31;5048649;28;20032;-69
2023/05/31 09:35:17;;;;;;;5.85;1.50;;;;;;;36.31;26.30;99050.06;5042859;28;20490;-69
2023/05/31 09:37:47;;;;;;;5.65;1.75;;;;;;;37.25;26.26;99045.09;5033443;28;20112;-70
2023/05/31 09:40:14;;;;;;;3.28;1.50;;;;;;;37.32;25.98;99046.44;5048316;28;20171;-69
2023/05/31 09:42:49;;;;;;;9.40;1.65;;;;;;;37.87;26.11;99035.63;5051983;28;20052;-69
2023/05/31 09:45:15;;;;;;;12.65;2.05;;;;;;;35.32;27.20;99038.88;5052873;28;20475;-69
2023/05/31 09:47:40;;;;;;;4.97;1.60;;;;;;;35.08;26.83;99031.44;5023709;28;20026;-69
2023/05/31 09:50:16;;;;;;;4.85;1.50;;;;;;;36.01;25.94;99035.69;5049748;28;20033;-74
2023/05/31 09:52:46;;;;;;;7.63;1.58;;;;;;;36.97;24.83;99039.75;5052276;28;20116;-78
2023/05/31 09:55:14;;;;;;;4.68;1.48;;;;;;;36.56;25.33;99035.72;5053611;28;20017;-77
2023/05/31 09:57:40;;;;;;;4.60;1.50;;;;;;;35.67;26.68;99028.88;5051315;28;20395;-77
2023/05/31 10:00:14;;;;;;;5.38;1.38;;;;;;;37.89;25.49;99033.25;5039893;28;20059;-78
2023/05/31 10:02:42;;;;;;;5.97;1.58;;;;;;;38.54;23.72;99037.78;5044457;28;20028;-80
2023/05/31 10:05:08;;;;;;;6.07;1.38;;;;;;;37.33;24.27;99048.03;5032311;28;20028;-69
2023/05/31 10:07:34;;;;;;;4.55;1.42;;;;;;;36.49;24.99;99032.72;5050710;28;20026;-69
2023/05/31 10:10:00;;;;;;;4.43;1.67;;;;;;;36.62;25.11;99042.69;5032804;28;20035;-69
2023/05/31 10:12:27;;;;;;;4.07;1.20;;;;;;;36.53;25.45;99053.34;5044694;28;20033;-69
2023/05/31 10:15:06;;;;;;;4.85;1.42;;;;;;;36.90;24.89;99042.41;5046777;28;20300;-71
2023/05/31 10:17:38;;;;;;;2.08;1.40;;;;;;;37.43;24.53;99050.22;5051616;28;20033;-72
2023/05/31 10:20:09;;;;;;;4.57;1.42;;;;;;;37.64;25.66;99049.81;5051123;28;20040;-71
2023/05/31 10:22:38;;;;;;;2.65;1.20;;;;;;;38.73;23.87;99039.63;5046465;28;20020;-72
2023/05/31 10:25:09;;;;;;;3.42;1.45;;;;;;;37.81;23.90;99026.69;5048390;28;20031;-74
2023/05/31 10:27:38;;;;;;;4.55;1.40;;;;;;;37.48;24.31;99033.78;5050775;28;20391;-72
2023/05/31 10:30:05;;;;;;;5.90;1.65;;;;;;;35.56;25.70;99037.84;5031690;28;20025;-71
2023/05/31 10:32:34;;;;;;;4.68;1.52;;;;;;;36.56;25.17;99027.25;5034130;28;20024;-73
2023/05/31 10:35:01;;;;;;;4.00;1.38;;;;;;;35.98;25.52;99020.34;5050992;28;20059;-72
2023/05/31 10:37:28;;;;;;;12.05;1.70;;;;;;;37.85;24.75;99012.59;5049470;28;20056;-72
2023/05/31 10:40:05;;;;;;;21.75;2.38;;;;;;;36.80;24.55;99012.81;5036364;28;20411;-72
2023/05/31 10:42:38;;;;;;;4.13;1.52;;;;;;;35.74;25.34;99014.97;5049515;28;20052;-73
2023/05/31 10:45:10;;;;;;;3.67;1.50;;;;;;;36.08;25.43;99009.72;5051853;28;20040;-71
2023/05/31 10:47:45;;;;;;;5.32;1.25;;;;;;;37.91;24.98;99013.88;5048096;28;20382;-72
2023/05/31 10:50:17;;;;;;;4.07;1.48;;;;;;;39.08;24.62;99007.28;5049848;28;20486;-72
2023/05/31 10:52:43;;;;;;;4.88;1.38;;;;;;;38.57;24.01;99005.94;5033472;28;20470;-73
2023/05/31 10:55:23;;;;;;;5.47;1.45;;;;;;;38.01;23.88;99010.44;5050544;28;20027;-73
2023/05/31 10:57:50;;;;;;;4.93;1.60;;;;;;;37.50;24.36;99008.03;5041660;28;20056;-72
2023/05/31 11:00:20;;;;;;;3.35;1.30;;;;;;;37.14;24.24;99012.25;5048802;28;20029;-72
2023/05/31 11:02:51;;;;;;;5.10;1.20;;;;;;;37.87;25.31;99001.75;5049105;28;20029;-72
2023/05/31 11:05:27;;;;;;;4.00;1.40;;;;;;;38.29;23.21;99012.00;5045915;28;20513;-73
2023/05/31 11:07:54;;;;;;;3.13;1.30;;;;;;;37.37;24.19;98992.47;5027830;28;20059;-72
2023/05/31 11:10:26;;;;;;;2.50;1.15;;;;;;;38.08;24.17;98993.59;5049620;28;20052;-73
2023/05/31 11:12:52;;;;;;;4.50;1.40;;;;;;;38.17;22.91;98992.47;5053138;28;20036;-74
2023/05/31 11:15:18;;;;;;;8.93;1.25;;;;;;;39.34;23.15;99001.47;5033489;28;20111;-75
2023/05/31 11:17:54;;;;;;;10.30;1.42;;;;;;;38.66;22.97;98995.09;5034602;28;20036;-76
2023/05/31 11:20:21;;;;;;;6.72;1.38;;;;;;;37.56;23.76;98997.25;5044902;28;20032;-75
2023/05/31 11:22:47;;;;;;;4.72;1.20;;;;;;;37.92;23.69;98992.94;5051228;28;20062;-73
2023/05/31 11:25:20;;;;;;;3.42;1.52;;;;;;;36.82;24.24;98987.88;5054613;28;20020;-71
2023/05/31 11:27:48;;;;;;;4.65;1.50;;;;;;;36.60;24.48;98988.66;5049713;28;20483;-71
2023/05/31 11:30:15;;;;;;;10.07;1.50;;;;;;;36.37;24.94;98980.16;5048027;28;20102;-71
2023/05/31 11:32:40;;;;;;;5.18;1.50;;;;;;;37.92;24.25;98979.63;5049452;28;20067;-71
2023/05/31 11:35:13;;;;;;;11.37;1.50;;;;;;;38.11;23.53;98963.75;5051110;28;20063;-72